sensor_id;sensor_type;location;lat;lon;timestamp;temperature;humidity
24250;DHT22;12379;49.820;8.648;2023-03-13T00:01:38;10.90;99.90
24250;DHT22;12379;49.820;8.648;2023-03-13T00:04:04;10.90;99.90
24250;DHT22;12379;49.820;8.648;2023-03-13T00:06:33;11.00;99.90
24250;DHT22;12379;49.820;8.648;2023-03-13T00:08:59;11.00;99.90
24250;DHT22;12379;49.820;8.648;2023-03-13T00:11:25;11.00;99.90
24250;DHT22;12379;49.820;8.648;2023-03-13T00:13:56;11.10;99.90
24250;DHT22;12379;49.820;8.648;2023-03-13T00:16:22;11.10;99.90
24250;DHT22;12379;49.820;8.648;2023-03-13T00:18:50;11.20;99.90
24250;DHT22;12379;49.820;8.648;2023-03-13T00:21:17;11.20;99.90
24250;DHT22;12379;49.820;8.648;2023-03-13T00:23:43;11.20;99.90
24250;DHT22;12379;49.820;8.648;2023-03-13T00:26:11;11.20;99.90
24250;DHT22;12379;49.820;8.648;2023-03-13T00:28:38;11.20;99.90
24250;DHT22;12379;49.820;8.648;2023-03-13T00:31:16;11.10;99.90
24250;DHT22;12379;49.820;8.648;2023-03-13T00:33:43;11.20;99.90
24250;DHT22;12379;49.820;8.648;2023-03-13T00:36:11;11.20;99.90
24250;DHT22;12379;49.820;8.648;2023-03-13T00:38:37;11.20;99.90
24250;DHT22;12379;49.820;8.648;2023-03-13T00:43:32;11.40;99.90
24250;DHT22;12379;49.820;8.648;2023-03-13T00:45:58;11.30;99.90
24250;DHT22;12379;49.820;8.648;2023-03-13T00:48:23;11.20;99.90
24250;DHT22;12379;49.820;8.648;2023-03-13T00:50:49;11.20;99.90
24250;DHT22;12379;49.820;8.648;2023-03-13T00:53:15;11.30;99.90
24250;DHT22;12379;49.820;8.648;2023-03-13T00:56:04;11.30;99.90
24250;DHT22;12379;49.820;8.648;2023-03-13T00:58:32;11.20;99.90
24250;DHT22;12379;49.820;8.648;2023-03-13T01:01:13;11.30;99.90
24250;DHT22;12379;49.820;8.648;2023-03-13T01:03:41;11.30;99.90
24250;DHT22;12379;49.820;8.648;2023-03-13T01:06:10;11.30;99.90
24250;DHT22;12379;49.820;8.648;2023-03-13T01:08:36;11.30;99.90
24250;DHT22;12379;49.820;8.648;2023-03-13T01:11:05;11.40;99.90
24250;DHT22;12379;49.820;8.648;2023-03-13T01:13:31;11.20;99.90
24250;DHT22;12379;49.820;8.648;2023-03-13T01:16:05;11.20;99.90
24250;DHT22;12379;49.820;8.648;2023-03-13T01:18:32;11.40;99.90
24250;DHT22;12379;49.820;8.648;2023-03-13T01:20:58;11.40;99.90
24250;DHT22;12379;49.820;8.648;2023-03-13T01:23:24;11.40;99.90
24250;DHT22;12379;49.820;8.648;2023-03-13T01:25:50;11.50;99.90
24250;DHT22;12379;49.820;8.648;2023-03-13T01:28:15;11.50;99.90
24250;DHT22;12379;49.820;8.648;2023-03-13T01:30:41;11.50;99.90
24250;DHT22;12379;49.820;8.648;2023-03-13T01:33:06;11.50;99.90
24250;DHT22;12379;49.820;8.648;2023-03-13T01:35:32;11.50;99.90
24250;DHT22;12379;49.820;8.648;2023-03-13T01:37:58;11.60;99.90
24250;DHT22;12379;49.820;8.648;2023-03-13T01:40:23;11.60;99.90
24250;DHT22;12379;49.820;8.648;2023-03-13T01:42:54;11.70;99.90
24250;DHT22;12379;49.820;8.648;2023-03-13T01:48:13;11.70;99.90
24250;DHT22;12379;49.820;8.648;2023-03-13T01:50:39;11.70;99.90
24250;DHT22;12379;49.820;8.648;2023-03-13T01:53:05;11.70;99.90
24250;DHT22;12379;49.820;8.648;2023-03-13T01:55:31;11.70;99.90
24250;DHT22;12379;49.820;8.648;2023-03-13T01:57:58;11.80;99.90
24250;DHT22;12379;49.820;8.648;2023-03-13T02:00:31;11.80;99.90
24250;DHT22;12379;49.820;8.648;2023-03-13T02:03:01;11.80;99.90
24250;DHT22;12379;49.820;8.648;2023-03-13T02:05:30;11.70;99.90
24250;DHT22;12379;49.820;8.648;2023-03-13T02:08:03;11.70;99.90
24250;DHT22;12379;49.820;8.648;2023-03-13T02:10:36;11.70;99.90
24250;DHT22;12379;49.820;8.648;2023-03-13T02:13:02;11.70;99.90
24250;DHT22;12379;49.820;8.648;2023-03-13T02:15:29;11.70;99.90
24250;DHT22;12379;49.820;8.648;2023-03-13T02:17:56;11.80;99.90
24250;DHT22;12379;49.820;8.648;2023-03-13T02:20:22;11.70;99.90
24250;DHT22;12379;49.820;8.648;2023-03-13T02:25:36;11.70;99.90
24250;DHT22;12379;49.820;8.648;2023-03-13T02:28:06;11.70;99.90
24250;DHT22;12379;49.820;8.648;2023-03-13T02:30:33;11.70;99.90
24250;DHT22;12379;49.820;8.648;2023-03-13T02:33:00;11.80;99.90
24250;DHT22;12379;49.820;8.648;2023-03-13T02:35:27;11.80;99.90
24250;DHT22;12379;49.820;8.648;2023-03-13T02:37:58;11.80;99.90
24250;DHT22;12379;49.820;8.648;2023-03-13T02:40:27;11.80;99.90
24250;DHT22;12379;49.820;8.648;2023-03-13T02:42:55;11.80;99.90
24250;DHT22;12379;49.820;8.648;2023-03-13T02:45:22;11.80;99.90
24250;DHT22;12379;49.820;8.648;2023-03-13T02:47:48;11.70;99.90
24250;DHT22;12379;49.820;8.648;2023-03-13T02:50:14;11.60;99.90
24250;DHT22;12379;49.820;8.648;2023-03-13T02:52:49;11.50;99.90
24250;DHT22;12379;49.820;8.648;2023-03-13T02:55:25;11.40;99.90
24250;DHT22;12379;49.820;8.648;2023-03-13T02:57:52;11.20;99.90
24250;DHT22;12379;49.820;8.648;2023-03-13T03:00:18;11.10;99.90
24250;DHT22;12379;49.820;8.648;2023-03-13T03:02:44;11.00;99.90
24250;DHT22;12379;49.820;8.648;2023-03-13T03:05:10;11.00;99.90
24250;DHT22;12379;49.820;8.648;2023-03-13T03:07:36;10.90;99.90
24250;DHT22;12379;49.820;8.648;2023-03-13T03:10:02;11.00;99.90
24250;DHT22;12379;49.820;8.648;2023-03-13T03:12:28;11.10;99.90
24250;DHT22;12379;49.820;8.648;2023-03-13T03:14:54;11.00;99.90
24250;DHT22;12379;49.820;8.648;2023-03-13T03:17:19;10.90;99.90
24250;DHT22;12379;49.820;8.648;2023-03-13T03:19:45;11.00;99.90
24250;DHT22;12379;49.820;8.648;2023-03-13T03:22:10;11.00;99.90
24250;DHT22;12379;49.820;8.648;2023-03-13T03:24:36;11.10;99.90
24250;DHT22;12379;49.820;8.648;2023-03-13T03:27:01;11.10;99.90
24250;DHT22;12379;49.820;8.648;2023-03-13T03:29:27;11.10;99.90
24250;DHT22;12379;49.820;8.648;2023-03-13T03:31:53;11.10;99.90
24250;DHT22;12379;49.820;8.648;2023-03-13T03:34:19;11.10;99.90
24250;DHT22;12379;49.820;8.648;2023-03-13T03:36:44;11.30;99.90
24250;DHT22;12379;49.820;8.648;2023-03-13T03:39:10;11.30;99.90
24250;DHT22;12379;49.820;8.648;2023-03-13T03:41:36;11.30;99.90
24250;DHT22;12379;49.820;8.648;2023-03-13T03:44:02;11.10;99.90
24250;DHT22;12379;49.820;8.648;2023-03-13T03:46:27;11.10;99.90
24250;DHT22;12379;49.820;8.648;2023-03-13T03:48:53;10.90;99.90
24250;DHT22;12379;49.820;8.648;2023-03-13T03:51:19;10.70;99.90
24250;DHT22;12379;49.820;8.648;2023-03-13T03:53:45;10.60;99.90
24250;DHT22;12379;49.820;8.648;2023-03-13T03:56:10;10.50;99.90
24250;DHT22;12379;49.820;8.648;2023-03-13T03:58:39;10.50;99.90
24250;DHT22;12379;49.820;8.648;2023-03-13T04:01:04;10.30;99.90
24250;DHT22;12379;49.820;8.648;2023-03-13T04:03:30;10.20;99.90
24250;DHT22;12379;49.820;8.648;2023-03-13T04:05:56;10.10;99.90
24250;DHT22;12379;49.820;8.648;2023-03-13T04:08:22;10.20;99.90
24250;DHT22;12379;49.820;8.648;2023-03-13T04:10:48;10.10;99.90
24250;DHT22;12379;49.820;8.648;2023-03-13T04:13:13;10.00;99.90
24250;DHT22;12379;49.820;8.648;2023-03-13T04:15:39;10.00;99.90
24250;DHT22;12379;49.820;8.648;2023-03-13T04:18:06;10.00;99.90
24250;DHT22;12379;49.820;8.648;2023-03-13T04:20:31;10.00;99.90
24250;DHT22;12379;49.820;8.648;2023-03-13T04:22:57;9.90;99.90
24250;DHT22;12379;49.820;8.648;2023-03-13T04:25:23;9.90;99.90
24250;DHT22;12379;49.820;8.648;2023-03-13T04:27:49;10.00;99.90
24250;DHT22;12379;49.820;8.648;2023-03-13T04:30:14;9.90;99.90
24250;DHT22;12379;49.820;8.648;2023-03-13T04:32:40;10.00;99.90
24250;DHT22;12379;49.820;8.648;2023-03-13T04:35:06;10.10;99.90
24250;DHT22;12379;49.820;8.648;2023-03-13T04:37:32;10.10;99.90
24250;DHT22;12379;49.820;8.648;2023-03-13T04:39:57;10.10;99.90
24250;DHT22;12379;49.820;8.648;2023-03-13T04:42:23;10.10;99.90
24250;DHT22;12379;49.820;8.648;2023-03-13T04:44:48;10.20;99.90
24250;DHT22;12379;49.820;8.648;2023-03-13T04:47:14;10.30;99.90
24250;DHT22;12379;49.820;8.648;2023-03-13T04:49:39;10.30;99.90
24250;DHT22;12379;49.820;8.648;2023-03-13T04:52:05;10.40;99.90
24250;DHT22;12379;49.820;8.648;2023-03-13T04:54:31;10.30;99.90
24250;DHT22;12379;49.820;8.648;2023-03-13T04:56:56;10.30;99.90
24250;DHT22;12379;49.820;8.648;2023-03-13T04:59:22;10.40;99.90
24250;DHT22;12379;49.820;8.648;2023-03-13T05:01:47;10.40;99.90
24250;DHT22;12379;49.820;8.648;2023-03-13T05:04:13;10.50;99.90
24250;DHT22;12379;49.820;8.648;2023-03-13T05:06:38;10.60;99.90
24250;DHT22;12379;49.820;8.648;2023-03-13T05:09:04;10.60;99.90
24250;DHT22;12379;49.820;8.648;2023-03-13T05:11:30;10.50;99.90
24250;DHT22;12379;49.820;8.648;2023-03-13T05:13:55;10.50;99.90
24250;DHT22;12379;49.820;8.648;2023-03-13T05:16:21;10.60;99.90
24250;DHT22;12379;49.820;8.648;2023-03-13T05:18:47;10.60;99.90
24250;DHT22;12379;49.820;8.648;2023-03-13T05:21:12;10.70;99.90
24250;DHT22;12379;49.820;8.648;2023-03-13T05:23:38;10.70;99.90
24250;DHT22;12379;49.820;8.648;2023-03-13T05:26:04;10.70;99.90
24250;DHT22;12379;49.820;8.648;2023-03-13T05:28:30;10.80;99.90
24250;DHT22;12379;49.820;8.648;2023-03-13T05:30:55;10.80;99.90
24250;DHT22;12379;49.820;8.648;2023-03-13T05:33:21;10.70;99.90
24250;DHT22;12379;49.820;8.648;2023-03-13T05:35:47;10.80;99.90
24250;DHT22;12379;49.820;8.648;2023-03-13T05:38:13;10.80;99.90
24250;DHT22;12379;49.820;8.648;2023-03-13T05:40:38;10.80;99.90
24250;DHT22;12379;49.820;8.648;2023-03-13T05:43:04;11.00;99.90
24250;DHT22;12379;49.820;8.648;2023-03-13T05:45:30;10.90;99.90
24250;DHT22;12379;49.820;8.648;2023-03-13T05:47:58;11.10;99.90
24250;DHT22;12379;49.820;8.648;2023-03-13T05:50:24;11.20;99.90
24250;DHT22;12379;49.820;8.648;2023-03-13T05:52:50;11.20;99.90
24250;DHT22;12379;49.820;8.648;2023-03-13T05:55:16;11.20;99.90
24250;DHT22;12379;49.820;8.648;2023-03-13T05:57:44;11.20;99.90
24250;DHT22;12379;49.820;8.648;2023-03-13T06:00:10;11.30;99.90
24250;DHT22;12379;49.820;8.648;2023-03-13T06:02:36;11.40;99.90
24250;DHT22;12379;49.820;8.648;2023-03-13T06:05:01;11.40;99.90
24250;DHT22;12379;49.820;8.648;2023-03-13T06:07:27;11.40;99.90
24250;DHT22;12379;49.820;8.648;2023-03-13T06:09:53;11.50;99.90
24250;DHT22;12379;49.820;8.648;2023-03-13T06:12:18;11.50;99.90
24250;DHT22;12379;49.820;8.648;2023-03-13T06:14:44;11.50;99.90
24250;DHT22;12379;49.820;8.648;2023-03-13T06:17:09;11.40;99.90
24250;DHT22;12379;49.820;8.648;2023-03-13T06:19:35;11.40;99.90
24250;DHT22;12379;49.820;8.648;2023-03-13T06:22:00;11.50;99.90
24250;DHT22;12379;49.820;8.648;2023-03-13T06:24:26;11.60;99.90
24250;DHT22;12379;49.820;8.648;2023-03-13T06:26:51;11.60;99.90
24250;DHT22;12379;49.820;8.648;2023-03-13T06:29:17;11.50;99.90
24250;DHT22;12379;49.820;8.648;2023-03-13T06:31:42;11.50;99.90
24250;DHT22;12379;49.820;8.648;2023-03-13T06:34:12;11.60;99.90
24250;DHT22;12379;49.820;8.648;2023-03-13T06:36:38;11.60;99.90
24250;DHT22;12379;49.820;8.648;2023-03-13T06:39:03;11.60;99.90
24250;DHT22;12379;49.820;8.648;2023-03-13T06:41:29;11.70;99.90
24250;DHT22;12379;49.820;8.648;2023-03-13T06:43:55;11.80;99.90
24250;DHT22;12379;49.820;8.648;2023-03-13T06:46:22;11.90;99.90
24250;DHT22;12379;49.820;8.648;2023-03-13T06:48:49;11.90;99.90
24250;DHT22;12379;49.820;8.648;2023-03-13T06:51:16;11.90;99.90
24250;DHT22;12379;49.820;8.648;2023-03-13T06:53:42;11.90;99.90
24250;DHT22;12379;49.820;8.648;2023-03-13T06:56:08;11.90;99.90
24250;DHT22;12379;49.820;8.648;2023-03-13T06:58:34;11.90;99.90
24250;DHT22;12379;49.820;8.648;2023-03-13T07:01:06;11.90;99.90
24250;DHT22;12379;49.820;8.648;2023-03-13T07:03:32;11.90;99.90
24250;DHT22;12379;49.820;8.648;2023-03-13T07:05:58;11.90;99.90
24250;DHT22;12379;49.820;8.648;2023-03-13T07:08:25;12.10;99.90
24250;DHT22;12379;49.820;8.648;2023-03-13T07:10:51;12.10;99.90
24250;DHT22;12379;49.820;8.648;2023-03-13T07:13:18;12.20;99.90
24250;DHT22;12379;49.820;8.648;2023-03-13T07:15:46;12.30;99.90
24250;DHT22;12379;49.820;8.648;2023-03-13T07:18:12;12.30;99.90
24250;DHT22;12379;49.820;8.648;2023-03-13T07:20:38;12.30;99.90
24250;DHT22;12379;49.820;8.648;2023-03-13T07:23:03;12.30;99.90
24250;DHT22;12379;49.820;8.648;2023-03-13T07:25:29;12.10;99.90
24250;DHT22;12379;49.820;8.648;2023-03-13T07:27:54;12.20;99.90
24250;DHT22;12379;49.820;8.648;2023-03-13T07:30:21;12.20;99.90
24250;DHT22;12379;49.820;8.648;2023-03-13T07:32:47;12.20;99.90
24250;DHT22;12379;49.820;8.648;2023-03-13T07:35:13;12.20;99.90
24250;DHT22;12379;49.820;8.648;2023-03-13T07:37:38;12.10;99.90
24250;DHT22;12379;49.820;8.648;2023-03-13T07:40:04;12.00;99.90
24250;DHT22;12379;49.820;8.648;2023-03-13T07:42:30;12.00;99.90
24250;DHT22;12379;49.820;8.648;2023-03-13T07:44:55;12.00;99.90
24250;DHT22;12379;49.820;8.648;2023-03-13T07:47:21;12.00;99.90
24250;DHT22;12379;49.820;8.648;2023-03-13T07:49:46;12.00;99.90
24250;DHT22;12379;49.820;8.648;2023-03-13T07:52:12;12.00;99.90
24250;DHT22;12379;49.820;8.648;2023-03-13T07:54:37;12.00;99.90
24250;DHT22;12379;49.820;8.648;2023-03-13T07:57:03;12.00;99.90
24250;DHT22;12379;49.820;8.648;2023-03-13T07:59:28;12.00;99.90
24250;DHT22;12379;49.820;8.648;2023-03-13T08:01:54;11.90;99.90
24250;DHT22;12379;49.820;8.648;2023-03-13T08:04:20;11.90;99.90
24250;DHT22;12379;49.820;8.648;2023-03-13T08:06:45;11.90;99.90
24250;DHT22;12379;49.820;8.648;2023-03-13T08:09:11;11.90;99.90
24250;DHT22;12379;49.820;8.648;2023-03-13T08:11:38;11.90;99.90
24250;DHT22;12379;49.820;8.648;2023-03-13T08:14:05;12.00;99.90
24250;DHT22;12379;49.820;8.648;2023-03-13T08:16:32;12.20;99.90
24250;DHT22;12379;49.820;8.648;2023-03-13T08:18:59;12.20;99.90
24250;DHT22;12379;49.820;8.648;2023-03-13T08:21:27;12.40;99.90
24250;DHT22;12379;49.820;8.648;2023-03-13T08:23:55;12.50;99.90
24250;DHT22;12379;49.820;8.648;2023-03-13T08:26:23;12.50;99.90
24250;DHT22;12379;49.820;8.648;2023-03-13T08:28:55;12.50;99.90
24250;DHT22;12379;49.820;8.648;2023-03-13T08:31:45;12.50;99.90
24250;DHT22;12379;49.820;8.648;2023-03-13T08:34:12;12.60;99.90
24250;DHT22;12379;49.820;8.648;2023-03-13T08:36:38;12.70;99.90
24250;DHT22;12379;49.820;8.648;2023-03-13T08:39:08;12.70;99.90
24250;DHT22;12379;49.820;8.648;2023-03-13T08:41:35;13.00;99.90
24250;DHT22;12379;49.820;8.648;2023-03-13T08:44:02;13.10;99.90
24250;DHT22;12379;49.820;8.648;2023-03-13T08:46:29;13.20;99.90
24250;DHT22;12379;49.820;8.648;2023-03-13T08:48:55;13.30;99.90
24250;DHT22;12379;49.820;8.648;2023-03-13T08:51:23;13.40;99.90
24250;DHT22;12379;49.820;8.648;2023-03-13T08:53:50;13.40;99.90
24250;DHT22;12379;49.820;8.648;2023-03-13T08:56:18;13.50;99.90
24250;DHT22;12379;49.820;8.648;2023-03-13T08:58:51;13.50;99.90
24250;DHT22;12379;49.820;8.648;2023-03-13T09:01:19;13.50;99.90
24250;DHT22;12379;49.820;8.648;2023-03-13T09:03:45;13.50;99.90
24250;DHT22;12379;49.820;8.648;2023-03-13T09:06:11;13.60;99.90
24250;DHT22;12379;49.820;8.648;2023-03-13T09:08:37;13.50;99.90
24250;DHT22;12379;49.820;8.648;2023-03-13T09:11:11;13.50;99.90
24250;DHT22;12379;49.820;8.648;2023-03-13T09:13:40;13.70;99.90
24250;DHT22;12379;49.820;8.648;2023-03-13T09:16:14;13.70;99.90
24250;DHT22;12379;49.820;8.648;2023-03-13T09:18:40;13.70;99.90
24250;DHT22;12379;49.820;8.648;2023-03-13T09:21:13;13.70;99.90
24250;DHT22;12379;49.820;8.648;2023-03-13T09:23:39;13.70;99.90
24250;DHT22;12379;49.820;8.648;2023-03-13T09:26:05;13.60;99.90
24250;DHT22;12379;49.820;8.648;2023-03-13T09:28:31;13.60;99.90
24250;DHT22;12379;49.820;8.648;2023-03-13T09:31:15;13.60;99.90
24250;DHT22;12379;49.820;8.648;2023-03-13T09:33:42;13.60;99.90
24250;DHT22;12379;49.820;8.648;2023-03-13T09:36:09;13.80;99.90
24250;DHT22;12379;49.820;8.648;2023-03-13T09:38:35;13.90;99.90
24250;DHT22;12379;49.820;8.648;2023-03-13T09:41:26;14.10;99.90
24250;DHT22;12379;49.820;8.648;2023-03-13T09:46:30;14.20;99.90
24250;DHT22;12379;49.820;8.648;2023-03-13T09:49:04;14.30;99.90
24250;DHT22;12379;49.820;8.648;2023-03-13T09:51:37;14.40;99.90
24250;DHT22;12379;49.820;8.648;2023-03-13T09:54:08;14.60;99.90
24250;DHT22;12379;49.820;8.648;2023-03-13T09:56:52;14.50;99.90
24250;DHT22;12379;49.820;8.648;2023-03-13T10:01:55;14.80;99.90
24250;DHT22;12379;49.820;8.648;2023-03-13T10:04:34;15.20;99.90
24250;DHT22;12379;49.820;8.648;2023-03-13T10:07:02;15.90;99.90
24250;DHT22;12379;49.820;8.648;2023-03-13T10:09:30;17.00;99.90
24250;DHT22;12379;49.820;8.648;2023-03-13T10:12:11;17.00;99.90
24250;DHT22;12379;49.820;8.648;2023-03-13T10:17:36;18.00;99.90
24250;DHT22;12379;49.820;8.648;2023-03-13T10:20:26;18.10;99.90
24250;DHT22;12379;49.820;8.648;2023-03-13T10:22:56;17.90;99.90
24250;DHT22;12379;49.820;8.648;2023-03-13T10:25:30;16.50;99.90
24250;DHT22;12379;49.820;8.648;2023-03-13T10:27:56;16.10;99.90
24250;DHT22;12379;49.820;8.648;2023-03-13T10:32:52;16.00;99.90
24250;DHT22;12379;49.820;8.648;2023-03-13T10:35:23;15.90;99.90
24250;DHT22;12379;49.820;8.648;2023-03-13T10:37:49;15.70;99.90
24250;DHT22;12379;49.820;8.648;2023-03-13T10:40:27;15.70;99.90
24250;DHT22;12379;49.820;8.648;2023-03-13T10:43:01;15.60;99.90
24250;DHT22;12379;49.820;8.648;2023-03-13T10:45:31;15.10;99.90
24250;DHT22;12379;49.820;8.648;2023-03-13T10:51:48;15.00;99.90
24250;DHT22;12379;49.820;8.648;2023-03-13T10:56:46;15.10;99.90
24250;DHT22;12379;49.820;8.648;2023-03-13T10:59:30;15.70;99.90
24250;DHT22;12379;49.820;8.648;2023-03-13T11:01:59;15.90;99.90
24250;DHT22;12379;49.820;8.648;2023-03-13T11:04:31;15.60;99.90
24250;DHT22;12379;49.820;8.648;2023-03-13T11:07:08;15.40;99.90
24250;DHT22;12379;49.820;8.648;2023-03-13T11:09:38;15.30;99.90
24250;DHT22;12379;49.820;8.648;2023-03-13T11:12:08;15.20;99.90
24250;DHT22;12379;49.820;8.648;2023-03-13T11:14:36;15.10;99.90
24250;DHT22;12379;49.820;8.648;2023-03-13T11:17:19;15.40;99.90
24250;DHT22;12379;49.820;8.648;2023-03-13T11:22:45;15.50;99.90
24250;DHT22;12379;49.820;8.648;2023-03-13T11:25:30;15.50;99.90
24250;DHT22;12379;49.820;8.648;2023-03-13T11:33:26;15.90;99.90
24250;DHT22;12379;49.820;8.648;2023-03-13T11:36:48;16.10;99.90
24250;DHT22;12379;49.820;8.648;2023-03-13T11:39:01;16.30;99.90
24250;DHT22;12379;49.820;8.648;2023-03-13T11:41:47;16.30;99.90
24250;DHT22;12379;49.820;8.648;2023-03-13T11:52:57;16.70;99.90
24250;DHT22;12379;49.820;8.648;2023-03-13T11:55:45;16.70;99.90
24250;DHT22;12379;49.820;8.648;2023-03-13T12:01:12;16.90;99.90
24250;DHT22;12379;49.820;8.648;2023-03-13T12:06:32;16.90;99.90
24250;DHT22;12379;49.820;8.648;2023-03-13T12:09:18;16.50;99.90
24250;DHT22;12379;49.820;8.648;2023-03-13T12:11:56;16.80;99.90
24250;DHT22;12379;49.820;8.648;2023-03-13T12:14:36;16.80;99.90
24250;DHT22;12379;49.820;8.648;2023-03-13T12:19:46;16.90;99.90
24250;DHT22;12379;49.820;8.648;2023-03-13T12:22:19;16.80;99.90
24250;DHT22;12379;49.820;8.648;2023-03-13T12:24:57;17.00;99.90
24250;DHT22;12379;49.820;8.648;2023-03-13T12:27:30;17.00;99.90
24250;DHT22;12379;49.820;8.648;2023-03-13T12:30:05;17.10;99.90
24250;DHT22;12379;49.820;8.648;2023-03-13T12:35:45;17.40;99.90
24250;DHT22;12379;49.820;8.648;2023-03-13T12:43:32;18.00;99.90
24250;DHT22;12379;49.820;8.648;2023-03-13T13:00:41;17.70;99.90
24250;DHT22;12379;49.820;8.648;2023-03-13T13:03:16;17.60;99.90
24250;DHT22;12379;49.820;8.648;2023-03-13T13:08:35;17.70;99.90
24250;DHT22;12379;49.820;8.648;2023-03-13T13:14:03;17.70;99.90
24250;DHT22;12379;49.820;8.648;2023-03-13T13:16:30;17.80;99.90
24250;DHT22;12379;49.820;8.648;2023-03-13T13:32:38;17.80;99.90
24250;DHT22;12379;49.820;8.648;2023-03-13T13:35:18;18.10;99.90
24250;DHT22;12379;49.820;8.648;2023-03-13T13:37:45;18.20;99.90
24250;DHT22;12379;49.820;8.648;2023-03-13T13:40:26;18.40;99.90
24250;DHT22;12379;49.820;8.648;2023-03-13T13:42:57;18.70;99.90
24250;DHT22;12379;49.820;8.648;2023-03-13T13:45:32;19.00;99.90
24250;DHT22;12379;49.820;8.648;2023-03-13T13:48:26;19.20;99.90
24250;DHT22;12379;49.820;8.648;2023-03-13T13:51:28;19.20;99.90
24250;DHT22;12379;49.820;8.648;2023-03-13T13:54:02;19.10;99.90
24250;DHT22;12379;49.820;8.648;2023-03-13T13:56:33;19.30;99.90
24250;DHT22;12379;49.820;8.648;2023-03-13T14:02:04;19.20;99.90
24250;DHT22;12379;49.820;8.648;2023-03-13T14:10:26;19.20;99.90
24250;DHT22;12379;49.820;8.648;2023-03-13T14:12:56;19.10;99.90
24250;DHT22;12379;49.820;8.648;2023-03-13T14:15:32;19.30;99.90
24250;DHT22;12379;49.820;8.648;2023-03-13T14:20:40;19.30;99.90
24250;DHT22;12379;49.820;8.648;2023-03-13T14:23:38;19.40;99.90
24250;DHT22;12379;49.820;8.648;2023-03-13T14:26:21;19.30;99.90
24250;DHT22;12379;49.820;8.648;2023-03-13T14:28:49;19.30;99.90
24250;DHT22;12379;49.820;8.648;2023-03-13T14:31:27;19.30;99.90
24250;DHT22;12379;49.820;8.648;2023-03-13T14:33:55;19.20;99.90
24250;DHT22;12379;49.820;8.648;2023-03-13T14:36:20;19.20;99.90
24250;DHT22;12379;49.820;8.648;2023-03-13T14:38:59;19.40;99.90
24250;DHT22;12379;49.820;8.648;2023-03-13T14:41:36;19.30;99.90
24250;DHT22;12379;49.820;8.648;2023-03-13T14:44:20;19.30;99.90
24250;DHT22;12379;49.820;8.648;2023-03-13T14:46:55;19.10;99.90
24250;DHT22;12379;49.820;8.648;2023-03-13T14:49:23;19.40;99.90
24250;DHT22;12379;49.820;8.648;2023-03-13T14:52:06;19.40;99.90
24250;DHT22;12379;49.820;8.648;2023-03-13T14:57:24;19.80;99.90
24250;DHT22;12379;49.820;8.648;2023-03-13T14:59:52;19.80;99.90
24250;DHT22;12379;49.820;8.648;2023-03-13T15:02:27;19.60;99.90
24250;DHT22;12379;49.820;8.648;2023-03-13T15:04:56;19.70;99.90
24250;DHT22;12379;49.820;8.648;2023-03-13T15:07:25;19.60;99.90
24250;DHT22;12379;49.820;8.648;2023-03-13T15:09:51;19.30;99.90
24250;DHT22;12379;49.820;8.648;2023-03-13T15:12:22;19.30;99.90
24250;DHT22;12379;49.820;8.648;2023-03-13T15:14:49;19.20;99.90
24250;DHT22;12379;49.820;8.648;2023-03-13T15:19:46;19.10;99.90
24250;DHT22;12379;49.820;8.648;2023-03-13T15:22:14;18.90;99.90
24250;DHT22;12379;49.820;8.648;2023-03-13T15:24:41;18.80;99.90
24250;DHT22;12379;49.820;8.648;2023-03-13T15:27:17;18.80;99.90
24250;DHT22;12379;49.820;8.648;2023-03-13T15:29:44;18.80;99.90
24250;DHT22;12379;49.820;8.648;2023-03-13T15:34:52;18.60;99.90
24250;DHT22;12379;49.820;8.648;2023-03-13T15:37:21;18.60;99.90
24250;DHT22;12379;49.820;8.648;2023-03-13T15:39:47;18.50;99.90
24250;DHT22;12379;49.820;8.648;2023-03-13T15:42:12;18.50;99.90
24250;DHT22;12379;49.820;8.648;2023-03-13T15:44:38;18.40;99.90
24250;DHT22;12379;49.820;8.648;2023-03-13T15:47:03;18.30;99.90
24250;DHT22;12379;49.820;8.648;2023-03-13T15:49:29;18.30;99.90
24250;DHT22;12379;49.820;8.648;2023-03-13T15:51:55;14.10;99.90
24250;DHT22;12379;49.820;8.648;2023-03-13T15:54:20;9.50;99.90
24250;DHT22;12379;49.820;8.648;2023-03-13T15:56:46;8.60;99.90
24250;DHT22;12379;49.820;8.648;2023-03-13T15:59:14;8.60;99.90
24250;DHT22;12379;49.820;8.648;2023-03-13T16:01:40;8.80;99.90
24250;DHT22;12379;49.820;8.648;2023-03-13T16:04:08;8.90;99.90
24250;DHT22;12379;49.820;8.648;2023-03-13T16:06:33;9.10;99.90
24250;DHT22;12379;49.820;8.648;2023-03-13T16:09:01;9.30;99.90
24250;DHT22;12379;49.820;8.648;2023-03-13T16:11:28;9.60;99.90
24250;DHT22;12379;49.820;8.648;2023-03-13T16:13:54;9.70;99.90
24250;DHT22;12379;49.820;8.648;2023-03-13T16:16:25;9.60;99.90
24250;DHT22;12379;49.820;8.648;2023-03-13T16:18:55;9.70;99.90
24250;DHT22;12379;49.820;8.648;2023-03-13T16:22:05;9.70;99.90
24250;DHT22;12379;49.820;8.648;2023-03-13T16:24:38;9.80;99.90
24250;DHT22;12379;49.820;8.648;2023-03-13T16:27:23;9.90;99.90
24250;DHT22;12379;49.820;8.648;2023-03-13T16:29:58;10.10;99.90
24250;DHT22;12379;49.820;8.648;2023-03-13T16:32:26;10.20;99.90
24250;DHT22;12379;49.820;8.648;2023-03-13T16:34:58;10.30;99.90
24250;DHT22;12379;49.820;8.648;2023-03-13T16:37:29;10.60;99.90
24250;DHT22;12379;49.820;8.648;2023-03-13T16:39:55;10.70;99.90
24250;DHT22;12379;49.820;8.648;2023-03-13T16:42:20;10.70;99.90
24250;DHT22;12379;49.820;8.648;2023-03-13T16:44:46;10.90;99.90
24250;DHT22;12379;49.820;8.648;2023-03-13T16:47:24;10.90;99.90
24250;DHT22;12379;49.820;8.648;2023-03-13T16:49:51;11.00;99.90
24250;DHT22;12379;49.820;8.648;2023-03-13T16:52:17;10.90;99.90
24250;DHT22;12379;49.820;8.648;2023-03-13T16:54:44;11.00;99.90
24250;DHT22;12379;49.820;8.648;2023-03-13T16:57:16;11.10;99.90
24250;DHT22;12379;49.820;8.648;2023-03-13T16:59:42;11.20;99.90
24250;DHT22;12379;49.820;8.648;2023-03-13T17:02:16;11.20;99.90
24250;DHT22;12379;49.820;8.648;2023-03-13T17:04:43;11.20;99.90
24250;DHT22;12379;49.820;8.648;2023-03-13T17:07:18;11.20;99.90
24250;DHT22;12379;49.820;8.648;2023-03-13T17:09:43;11.30;99.90
24250;DHT22;12379;49.820;8.648;2023-03-13T17:12:09;11.50;99.90
24250;DHT22;12379;49.820;8.648;2023-03-13T17:14:34;11.50;99.90
24250;DHT22;12379;49.820;8.648;2023-03-13T17:17:00;11.50;99.90
24250;DHT22;12379;49.820;8.648;2023-03-13T17:19:26;11.50;99.90
24250;DHT22;12379;49.820;8.648;2023-03-13T17:21:51;11.60;99.90
24250;DHT22;12379;49.820;8.648;2023-03-13T17:24:17;11.70;99.90
24250;DHT22;12379;49.820;8.648;2023-03-13T17:26:42;11.70;99.90
24250;DHT22;12379;49.820;8.648;2023-03-13T17:29:15;11.70;99.90
24250;DHT22;12379;49.820;8.648;2023-03-13T17:31:40;11.80;99.90
24250;DHT22;12379;49.820;8.648;2023-03-13T17:34:07;11.80;99.90
24250;DHT22;12379;49.820;8.648;2023-03-13T17:36:35;11.90;99.90